Time;durP1;ratioP1;P1;durP2;ratioP2;P2;SDS_P1;SDS_P2;PMS_P1;PMS_P2;Temp;Humidity;BMP_temperature;BMP_pressure;BME280_temperature;BME280_humidity;BME280_pressure;Samples;Min_cycle;Max_cycle;Signal;HPM_P1;HPM_P2
2022/09/09 00:00:47;;;;;;;14.00;12.53;;;16.60;99.90;;;;;;4928492;29;20487;-83
2022/09/09 00:03:23;;;;;;;14.33;12.83;;;16.60;99.90;;;;;;4930986;29;20466;-83
2022/09/09 00:06:07;;;;;;;13.87;12.30;;;16.40;99.90;;;;;;4910375;29;20487;-84
2022/09/09 00:08:56;;;;;;;17.40;11.80;;;16.40;99.90;;;;;;4940202;29;20500;-83
2022/09/09 00:12:06;;;;;;;12.37;11.13;;;16.50;99.90;;;;;;4940007;29;20835;-81
2022/09/09 00:14:54;;;;;;;13.97;12.57;;;16.10;99.90;;;;;;4929238;29;20467;-84
2022/09/09 00:17:40;;;;;;;12.85;11.73;;;16.00;99.90;;;;;;4929916;29;20787;-81
2022/09/09 00:20:27;;;;;;;12.10;10.90;;;15.70;99.90;;;;;;4918737;29;20260;-82
2022/09/09 00:23:03;;;;;;;14.83;13.33;;;15.90;99.90;;;;;;4926068;29;20646;-84
2022/09/09 00:25:43;;;;;;;14.60;13.20;;;16.00;99.90;;;;;;4933295;29;20723;-82
2022/09/09 00:28:21;;;;;;;15.63;14.13;;;16.00;99.90;;;;;;4932112;29;20554;-83
2022/09/09 00:30:48;;;;;;;13.67;12.33;;;16.00;99.90;;;;;;4936783;29;20435;-82
2022/09/09 00:33:23;;;;;;;13.50;12.10;;;16.10;99.90;;;;;;4920169;29;20460;-83
2022/09/09 00:36:00;;;;;;;13.35;12.05;;;15.80;99.90;;;;;;4918896;29;20448;-83
2022/09/09 00:38:36;;;;;;;18.38;14.50;;;15.90;99.90;;;;;;4919705;29;20214;-83
2022/09/09 00:41:22;;;;;;;14.00;12.43;;;15.90;99.90;;;;;;4937638;29;20517;-85
2022/09/09 00:44:03;;;;;;;13.13;11.83;;;15.80;99.90;;;;;;4907033;29;20451;-86
2022/09/09 00:47:11;;;;;;;15.70;14.23;;;15.70;99.90;;;;;;4904649;29;21043;-86
2022/09/09 00:50:06;;;;;;;12.63;11.53;;;15.50;99.90;;;;;;4937668;29;20730;-82
2022/09/09 00:52:57;;;;;;;16.52;14.82;;;15.40;99.90;;;;;;4925718;29;20508;-84
2022/09/09 00:56:00;;;;;;;13.30;11.95;;;15.50;99.90;;;;;;4918908;29;20213;-84
2022/09/09 00:58:50;;;;;;;16.10;12.53;;;15.60;99.90;;;;;;4935234;29;20531;-83
2022/09/09 01:01:17;;;;;;;14.27;12.88;;;15.80;99.90;;;;;;4932190;29;20496;-84
2022/09/09 01:03:53;;;;;;;15.68;12.45;;;15.80;99.90;;;;;;4932816;29;20677;-82
2022/09/09 01:06:31;;;;;;;14.65;13.25;;;15.90;99.90;;;;;;4923336;29;20232;-83
2022/09/09 01:09:16;;;;;;;15.43;13.93;;;15.90;99.90;;;;;;4923360;29;20216;-83
2022/09/09 01:11:59;;;;;;;13.98;12.57;;;15.90;99.90;;;;;;4933776;29;20236;-85
2022/09/09 01:14:42;;;;;;;14.53;13.13;;;15.60;99.90;;;;;;4925061;29;20507;-82
2022/09/09 01:17:22;;;;;;;15.48;13.88;;;15.50;99.90;;;;;;4942193;28;20527;-85
2022/09/09 01:20:01;;;;;;;15.40;13.77;;;15.50;99.90;;;;;;4913352;29;20207;-85
2022/09/09 01:22:40;;;;;;;15.18;13.77;;;15.50;99.90;;;;;;4938084;29;20214;-82
2022/09/09 01:25:29;;;;;;;17.08;15.27;;;15.60;99.90;;;;;;4937749;29;20532;-84
2022/09/09 01:28:00;;;;;;;16.15;14.55;;;15.60;99.90;;;;;;4939610;29;20277;-81
2022/09/09 01:30:28;;;;;;;15.88;14.23;;;15.60;99.90;;;;;;4931568;29;20568;-82
2022/09/09 01:33:00;;;;;;;15.18;13.70;;;15.60;99.90;;;;;;4933353;29;20243;-83
2022/09/09 01:36:21;;;;;;;18.75;13.60;;;15.60;99.90;;;;;;4921081;29;20402;-84
2022/09/09 01:38:48;;;;;;;17.20;14.70;;;15.60;99.90;;;;;;4888849;29;20411;-87
2022/09/09 01:41:15;;;;;;;14.57;13.07;;;15.50;99.90;;;;;;4920242;29;20417;-81
2022/09/09 01:43:42;;;;;;;15.98;14.48;;;15.50;99.90;;;;;;4925484;29;20470;-81
2022/09/09 01:46:11;;;;;;;16.15;14.55;;;15.50;99.90;;;;;;4941651;29;20276;-82
2022/09/09 01:48:40;;;;;;;15.88;14.38;;;15.40;99.90;;;;;;4940266;29;20200;-83
2022/09/09 01:51:10;;;;;;;16.20;14.48;;;15.40;99.90;;;;;;4936550;29;20735;-84
2022/09/09 01:53:39;;;;;;;17.25;15.45;;;15.40;99.90;;;;;;4922977;29;20213;-82
2022/09/09 01:56:40;;;;;;;16.73;15.10;;;15.40;99.90;;;;;;4932868;29;20261;-82
2022/09/09 01:59:13;;;;;;;16.75;15.25;;;15.30;99.90;;;;;;4933705;29;20231;-84
2022/09/09 02:01:48;;;;;;;15.40;13.73;;;15.30;99.90;;;;;;4929218;29;20214;-85
2022/09/09 02:04:48;;;;;;;15.55;14.15;;;15.40;99.90;;;;;;4919380;29;20503;-84
2022/09/09 02:07:28;;;;;;;15.95;14.35;;;15.30;99.90;;;;;;4927097;29;20228;-84
2022/09/09 02:10:08;;;;;;;16.75;15.00;;;15.20;99.90;;;;;;4933468;29;20207;-82
2022/09/09 02:12:39;;;;;;;17.35;15.65;;;15.20;99.90;;;;;;4932793;29;20215;-83
2022/09/09 02:15:16;;;;;;;15.35;13.82;;;15.30;99.90;;;;;;4922104;29;20228;-84
2022/09/09 02:17:46;;;;;;;18.08;16.20;;;15.10;99.90;;;;;;4938558;29;20274;-82
2022/09/09 02:20:14;;;;;;;17.60;15.90;;;15.10;99.90;;;;;;4937395;29;20348;-86
2022/09/09 02:22:49;;;;;;;18.98;17.08;;;15.20;99.90;;;;;;4935547;29;20208;-82
2022/09/09 02:25:20;;;;;;;18.70;16.60;;;15.20;99.90;;;;;;4916136;29;20228;-82
2022/09/09 02:27:50;;;;;;;19.17;16.45;;;15.30;99.90;;;;;;4931325;29;20261;-81
2022/09/09 02:30:20;;;;;;;18.58;16.67;;;15.30;99.90;;;;;;4935295;29;20523;-81
2022/09/09 02:32:50;;;;;;;17.40;15.70;;;15.30;99.90;;;;;;4930124;29;20252;-82
2022/09/09 02:35:24;;;;;;;18.00;16.20;;;15.30;99.90;;;;;;4929145;29;20236;-81
2022/09/09 02:37:55;;;;;;;16.88;15.30;;;15.30;99.90;;;;;;4927850;29;20212;-83
2022/09/09 02:40:21;;;;;;;18.38;16.48;;;15.20;99.90;;;;;;4923401;29;20209;-81
2022/09/09 02:42:49;;;;;;;20.15;16.05;;;15.20;99.90;;;;;;4926392;29;20212;-82
2022/09/09 02:45:24;;;;;;;18.38;16.67;;;15.20;99.90;;;;;;4918653;29;20211;-84
2022/09/09 02:48:14;;;;;;;18.30;16.48;;;15.20;99.90;;;;;;4934327;29;20252;-81
2022/09/09 02:50:49;;;;;;;17.15;15.60;;;15.20;99.90;;;;;;4912373;29;20220;-83
2022/09/09 02:53:20;;;;;;;19.92;16.90;;;15.10;99.90;;;;;;4922038;29;20479;-84
2022/09/09 02:55:54;;;;;;;17.38;15.45;;;15.20;99.90;;;;;;4897747;29;20220;-83
2022/09/09 02:58:22;;;;;;;18.30;16.52;;;15.20;99.90;;;;;;4928254;29;20210;-83
2022/09/09 03:00:51;;;;;;;18.15;16.35;;;15.20;99.90;;;;;;4913313;29;20214;-83
2022/09/09 03:03:20;;;;;;;18.23;16.33;;;15.20;99.90;;;;;;4918085;29;20528;-83
2022/09/09 03:05:47;;;;;;;17.60;15.73;;;15.10;99.90;;;;;;4934857;29;20242;-82
2022/09/09 03:08:17;;;;;;;18.35;16.30;;;15.20;99.90;;;;;;4938464;29;20220;-82
2022/09/09 03:10:44;;;;;;;16.58;14.98;;;15.10;99.90;;;;;;4938242;29;20442;-81
2022/09/09 03:13:12;;;;;;;17.02;15.32;;;15.10;99.90;;;;;;4928383;29;20213;-82
2022/09/09 03:15:39;;;;;;;17.42;15.75;;;15.10;99.90;;;;;;4904067;29;20287;-83
2022/09/09 03:18:07;;;;;;;20.95;15.80;;;15.10;99.90;;;;;;4932710;29;20243;-82
2022/09/09 03:20:34;;;;;;;18.08;16.17;;;15.00;99.90;;;;;;4928065;29;20217;-84
2022/09/09 03:23:03;;;;;;;16.33;14.73;;;15.10;99.90;;;;;;4928124;29;20212;-84
2022/09/09 03:25:30;;;;;;;16.63;15.02;;;15.00;99.90;;;;;;4935935;29;20230;-85
2022/09/09 03:27:57;;;;;;;19.67;16.95;;;15.00;99.90;;;;;;4933924;29;20216;-84
2022/09/09 03:30:26;;;;;;;18.60;16.80;;;15.00;99.90;;;;;;4922463;29;20225;-80
2022/09/09 03:32:54;;;;;;;18.65;16.75;;;14.90;99.90;;;;;;4940449;29;20207;-80
2022/09/09 03:35:21;;;;;;;16.60;14.90;;;14.70;99.90;;;;;;4940077;29;20209;-83
2022/09/09 03:37:49;;;;;;;19.38;14.48;;;14.80;99.90;;;;;;4913985;29;20204;-81
2022/09/09 03:40:16;;;;;;;18.25;16.27;;;14.80;99.90;;;;;;4919178;29;20224;-82
2022/09/09 03:42:43;;;;;;;18.38;16.58;;;14.80;99.90;;;;;;4933992;29;20452;-81
2022/09/09 03:45:10;;;;;;;19.33;16.73;;;14.90;99.90;;;;;;4935595;29;20211;-81
2022/09/09 03:47:37;;;;;;;17.25;15.43;;;14.70;99.90;;;;;;4931601;29;20422;-78
2022/09/09 03:50:09;;;;;;;16.23;14.60;;;14.80;99.90;;;;;;4934875;29;20530;-79
2022/09/09 03:52:37;;;;;;;17.42;15.63;;;14.90;99.90;;;;;;4931208;29;20273;-79
2022/09/09 03:55:05;;;;;;;17.02;15.23;;;14.70;99.90;;;;;;4927479;29;20216;-79
2022/09/09 03:57:35;;;;;;;16.00;14.50;;;14.80;99.90;;;;;;4930141;29;20211;-78
2022/09/09 04:00:07;;;;;;;16.63;14.93;;;14.80;99.90;;;;;;4927552;29;20220;-79
2022/09/09 04:02:34;;;;;;;16.10;14.45;;;14.90;99.90;;;;;;4928135;29;20265;-78
2022/09/09 04:05:01;;;;;;;20.30;16.00;;;14.90;99.90;;;;;;4931769;29;20255;-78
2022/09/09 04:07:28;;;;;;;17.75;15.95;;;14.80;99.90;;;;;;4920057;29;20281;-79
2022/09/09 04:09:55;;;;;;;18.00;16.20;;;14.80;99.90;;;;;;4930692;29;20217;-79
2022/09/09 04:12:22;;;;;;;17.40;15.75;;;14.80;99.90;;;;;;4933252;29;20225;-78
2022/09/09 04:14:49;;;;;;;18.90;15.18;;;14.80;99.90;;;;;;4927034;29;20224;-78
2022/09/09 04:17:17;;;;;;;17.55;15.80;;;14.80;99.90;;;;;;4933737;29;20439;-77
2022/09/09 04:19:44;;;;;;;17.10;15.50;;;14.80;99.90;;;;;;4930710;29;20348;-78
2022/09/09 04:22:10;;;;;;;17.70;15.90;;;14.80;99.90;;;;;;4930586;29;20201;-80
2022/09/09 04:24:38;;;;;;;20.35;17.10;;;14.70;99.90;;;;;;4929805;29;20268;-77
2022/09/09 04:27:05;;;;;;;17.50;15.25;;;14.80;99.90;;;;;;4932824;29;20557;-77
2022/09/09 04:29:33;;;;;;;19.35;17.27;;;14.70;99.90;;;;;;4932187;29;20205;-80
2022/09/09 04:32:00;;;;;;;16.90;14.93;;;14.60;99.90;;;;;;4935715;29;20423;-80
2022/09/09 04:34:28;;;;;;;18.33;16.40;;;14.60;99.90;;;;;;4927683;29;20206;-78
2022/09/09 04:36:55;;;;;;;19.08;16.08;;;14.50;99.90;;;;;;4933837;29;20251;-79
2022/09/09 04:39:22;;;;;;;18.13;15.07;;;14.50;99.90;;;;;;4928910;29;20279;-79
2022/09/09 04:41:49;;;;;;;16.65;15.10;;;14.70;99.90;;;;;;4923434;29;20235;-79
2022/09/09 04:44:16;;;;;;;18.20;16.40;;;14.70;99.90;;;;;;4932899;29;20200;-78
2022/09/09 04:46:45;;;;;;;20.73;17.98;;;14.50;99.90;;;;;;4932699;29;20228;-81
2022/09/09 04:49:12;;;;;;;28.92;18.60;;;14.50;99.90;;;;;;4935889;29;20208;-78
2022/09/09 04:51:40;;;;;;;20.60;18.20;;;14.70;99.90;;;;;;4927270;29;20211;-78
2022/09/09 04:54:08;;;;;;;20.50;18.17;;;14.80;99.90;;;;;;4936669;29;20208;-80
2022/09/09 04:56:36;;;;;;;18.90;17.05;;;14.80;99.90;;;;;;4934896;29;20267;-79
2022/09/09 04:59:03;;;;;;;26.73;20.08;;;14.90;99.90;;;;;;4936685;29;20271;-79
2022/09/09 05:01:30;;;;;;;29.20;26.20;;;15.10;99.90;;;;;;4926889;29;20239;-81
2022/09/09 05:03:57;;;;;;;25.42;22.70;;;15.10;99.90;;;;;;4921404;29;20495;-78
2022/09/09 05:06:24;;;;;;;25.42;21.00;;;15.30;99.90;;;;;;4938139;29;20225;-78
2022/09/09 05:08:51;;;;;;;32.60;22.40;;;15.10;99.90;;;;;;4930729;29;20312;-79
2022/09/09 05:11:26;;;;;;;26.08;20.45;;;15.20;99.90;;;;;;4926888;29;20428;-78
2022/09/09 05:13:56;;;;;;;24.63;21.83;;;15.10;99.90;;;;;;4934397;29;20215;-79
2022/09/09 05:16:23;;;;;;;35.60;23.40;;;15.30;99.90;;;;;;4929886;29;20556;-78
2022/09/09 05:18:51;;;;;;;22.23;19.80;;;15.30;99.90;;;;;;4933142;29;20205;-79
2022/09/09 05:21:19;;;;;;;23.67;20.80;;;15.40;99.90;;;;;;4925441;29;20209;-77
2022/09/09 05:23:50;;;;;;;21.17;18.35;;;15.60;99.90;;;;;;4933138;29;20207;-78
2022/09/09 05:26:19;;;;;;;19.63;17.73;;;15.60;99.90;;;;;;4926999;29;20288;-78
2022/09/09 05:28:46;;;;;;;20.05;18.15;;;15.50;99.90;;;;;;4930192;29;20205;-81
2022/09/09 05:31:15;;;;;;;22.73;19.67;;;15.40;99.90;;;;;;4931938;29;20403;-81
2022/09/09 05:33:45;;;;;;;22.40;20.00;;;15.40;99.90;;;;;;4932531;29;20233;-79
2022/09/09 05:36:15;;;;;;;23.83;20.27;;;15.50;99.90;;;;;;4931235;29;20810;-81
2022/09/09 05:38:43;;;;;;;26.73;23.13;;;15.60;99.90;;;;;;4929396;29;20441;-77
2022/09/09 05:41:11;;;;;;;23.70;21.30;;;15.70;99.90;;;;;;4927601;29;20197;-78
2022/09/09 05:43:39;;;;;;;24.50;20.40;;;15.80;99.90;;;;;;4928736;29;20478;-79
2022/09/09 05:46:08;;;;;;;22.40;20.10;;;16.00;99.90;;;;;;4920853;29;20499;-77
2022/09/09 05:48:37;;;;;;;25.67;20.57;;;16.20;99.90;;;;;;4931181;29;20458;-78
2022/09/09 05:51:08;;;;;;;27.93;19.50;;;16.40;99.90;;;;;;4930621;29;20426;-78
2022/09/09 05:53:35;;;;;;;17.97;16.27;;;16.60;99.90;;;;;;4928493;29;20441;-78
2022/09/09 05:56:09;;;;;;;16.57;14.90;;;16.80;99.90;;;;;;4934241;29;20481;-78
2022/09/09 05:58:37;;;;;;;18.73;12.83;;;16.90;99.90;;;;;;4925082;29;20446;-79
2022/09/09 06:01:10;;;;;;;13.73;11.93;;;17.00;99.90;;;;;;4923972;29;20455;-79
2022/09/09 06:03:39;;;;;;;11.07;9.93;;;17.00;99.90;;;;;;4933864;29;20478;-78
2022/09/09 06:06:23;;;;;;;9.40;8.53;;;17.30;99.90;;;;;;4930499;29;20458;-78
2022/09/09 06:08:52;;;;;;;10.43;9.33;;;17.10;99.90;;;;;;4906719;29;20859;-79
2022/09/09 06:11:22;;;;;;;8.17;7.47;;;17.20;99.90;;;;;;4926260;29;20473;-79
2022/09/09 06:13:53;;;;;;;7.40;6.73;;;17.50;99.90;;;;;;4926729;29;20462;-80
2022/09/09 06:16:26;;;;;;;6.17;5.57;;;17.80;99.90;;;;;;4925970;29;20449;-79
2022/09/09 06:18:54;;;;;;;7.67;6.97;;;18.00;99.90;;;;;;4926827;29;20429;-80
2022/09/09 06:21:27;;;;;;;8.27;6.27;;;18.30;99.90;;;;;;4927439;29;20501;-78
2022/09/09 06:23:54;;;;;;;7.80;5.53;;;18.80;99.90;;;;;;4926267;29;20438;-79
2022/09/09 06:26:31;;;;;;;7.03;5.70;;;19.10;99.90;;;;;;4928139;29;20454;-80
2022/09/09 06:28:59;;;;;;;6.50;5.40;;;19.50;99.90;;;;;;4929356;29;20648;-79
2022/09/09 06:31:30;;;;;;;7.43;5.70;;;19.90;99.90;;;;;;4919708;29;20430;-80
2022/09/09 06:33:58;;;;;;;5.20;4.80;;;20.40;99.90;;;;;;4923761;29;20435;-80
2022/09/09 06:36:27;;;;;;;10.97;4.70;;;21.50;99.90;;;;;;4926869;29;20502;-79
2022/09/09 06:38:57;;;;;;;6.93;4.67;;;22.70;99.90;;;;;;4924245;29;20470;-79
2022/09/09 06:41:26;;;;;;;10.50;4.87;;;23.90;99.90;;;;;;4926379;29;20531;-81
2022/09/09 06:43:55;;;;;;;12.03;5.20;;;25.00;99.90;;;;;;4929954;29;20425;-78
2022/09/09 06:46:27;;;;;;;6.60;4.50;;;26.30;99.90;;;;;;4931367;29;20421;-78
2022/09/09 06:48:57;;;;;;;6.47;4.10;;;27.40;99.90;;;;;;4922485;29;20457;-80
2022/09/09 06:51:36;;;;;;;4.27;3.87;;;27.80;99.90;;;;;;4931155;29;20443;-79
2022/09/09 06:54:03;;;;;;;4.83;3.97;;;28.40;99.90;;;;;;4912062;29;20442;-79
2022/09/09 06:56:40;;;;;;;4.53;4.13;;;29.30;99.90;;;;;;4924215;29;20455;-80
2022/09/09 06:59:09;;;;;;;10.10;4.67;;;31.00;99.90;;;;;;4928582;29;20442;-79
2022/09/09 07:01:39;;;;;;;10.40;4.00;;;33.50;99.90;;;;;;4910162;29;20486;-78
2022/09/09 07:04:08;;;;;;;4.50;3.13;;;35.40;96.30;;;;;;4928709;29;20502;-78
2022/09/09 07:06:38;;;;;;;5.50;3.60;;;36.00;91.20;;;;;;4926171;29;20802;-79
2022/09/09 07:09:10;;;;;;;3.80;3.47;;;35.40;92.00;;;;;;4924604;29;20442;-79
2022/09/09 07:11:49;;;;;;;3.93;3.47;;;35.00;91.90;;;;;;4935805;29;20532;-79
2022/09/09 07:14:16;;;;;;;2.70;2.50;;;35.70;90.70;;;;;;4935265;29;20458;-79
2022/09/09 07:16:44;;;;;;;5.50;2.70;;;37.20;84.00;;;;;;4915222;29;20631;-79
2022/09/09 07:19:12;;;;;;;3.73;3.40;;;38.20;75.60;;;;;;4939392;29;20450;-79
2022/09/09 07:21:42;;;;;;;10.63;3.27;;;39.10;73.70;;;;;;4939640;29;20851;-79
2022/09/09 07:24:10;;;;;;;3.13;2.80;;;40.00;69.70;;;;;;4932587;29;20967;-80
2022/09/09 07:26:40;;;;;;;5.03;3.03;;;39.30;68.70;;;;;;4933467;29;20988;-79
2022/09/09 07:29:09;;;;;;;4.33;2.63;;;40.50;68.60;;;;;;4937170;29;20454;-80
2022/09/09 07:31:38;;;;;;;5.33;2.37;;;39.20;64.70;;;;;;4934366;29;20462;-80
2022/09/09 07:34:06;;;;;;;2.27;2.00;;;39.90;64.50;;;;;;4936495;29;20544;-79
2022/09/09 07:36:36;;;;;;;4.27;3.23;;;40.30;63.10;;;;;;4938987;29;20446;-80
2022/09/09 07:39:10;;;;;;;3.47;3.23;;;39.60;62.20;;;;;;4935526;29;20741;-80
2022/09/09 07:41:44;;;;;;;2.40;2.20;;;40.80;60.50;;;;;;4919207;29;20494;-80
2022/09/09 07:44:15;;;;;;;2.20;2.00;;;40.90;59.30;;;;;;4933781;29;20504;-79
2022/09/09 07:46:44;;;;;;;2.10;2.00;;;40.80;59.70;;;;;;4935528;29;20467;-80
2022/09/09 07:49:12;;;;;;;2.60;2.40;;;41.80;60.60;;;;;;4934613;29;20768;-81
2022/09/09 07:51:41;;;;;;;2.73;1.90;;;40.60;59.70;;;;;;4931163;29;20489;-81
2022/09/09 07:54:12;;;;;;;2.23;1.60;;;38.60;60.70;;;;;;4932656;29;20529;-80
2022/09/09 07:56:40;;;;;;;2.80;2.10;;;39.30;59.70;;;;;;4931540;29;20482;-80
2022/09/09 07:59:09;;;;;;;3.07;1.77;;;38.50;63.10;;;;;;4932200;29;20450;-80
2022/09/09 08:01:40;;;;;;;1.97;1.77;;;38.00;63.90;;;;;;4930682;29;20450;-79
2022/09/09 08:04:10;;;;;;;9.20;2.87;;;37.00;66.60;;;;;;4928944;29;20513;-79
2022/09/09 08:06:39;;;;;;;4.33;2.00;;;36.80;67.60;;;;;;4930348;29;20447;-81
2022/09/09 08:09:08;;;;;;;3.63;2.60;;;36.50;66.70;;;;;;4946013;29;20446;-81
2022/09/09 08:11:36;;;;;;;1.93;1.73;;;36.40;65.50;;;;;;4946197;29;20479;-80
2022/09/09 08:14:09;;;;;;;2.47;1.70;;;36.20;68.30;;;;;;4925222;29;20451;-80
2022/09/09 08:16:43;;;;;;;2.37;2.20;;;36.50;65.00;;;;;;4928879;29;20503;-81
2022/09/09 08:19:10;;;;;;;5.50;1.90;;;36.30;64.60;;;;;;4912490;29;20432;-80
2022/09/09 08:21:39;;;;;;;3.40;2.33;;;36.60;63.80;;;;;;4902573;29;20703;-80
2022/09/09 08:24:08;;;;;;;2.27;1.60;;;36.80;64.50;;;;;;4915614;29;20514;-80
2022/09/09 08:26:37;;;;;;;1.47;1.37;;;37.20;62.00;;;;;;4916137;29;20451;-81
2022/09/09 08:29:06;;;;;;;3.80;1.77;;;36.00;62.90;;;;;;4933457;29;20486;-81
2022/09/09 08:31:39;;;;;;;3.10;2.00;;;35.50;65.20;;;;;;4930604;29;20498;-81
2022/09/09 08:34:07;;;;;;;2.03;1.93;;;35.30;63.50;;;;;;4927470;29;20468;-82
2022/09/09 08:36:38;;;;;;;5.30;2.10;;;35.00;66.60;;;;;;4927695;29;20455;-80
2022/09/09 08:39:06;;;;;;;2.77;1.90;;;34.40;68.80;;;;;;4926879;29;20493;-81
2022/09/09 08:41:58;;;;;;;2.13;1.70;;;34.50;67.20;;;;;;4932470;29;20443;-82
2022/09/09 08:44:34;;;;;;;1.93;1.50;;;35.30;69.60;;;;;;4914508;29;20483;-80
2022/09/09 08:47:22;;;;;;;5.43;1.97;;;36.10;62.90;;;;;;4933874;29;20454;-81
2022/09/09 08:49:58;;;;;;;2.53;2.20;;;34.80;67.40;;;;;;4933797;29;20510;-81
2022/09/09 08:52:29;;;;;;;2.90;1.47;;;34.00;71.50;;;;;;4922267;29;20435;-81
2022/09/09 08:55:10;;;;;;;4.07;1.60;;;34.20;69.10;;;;;;4931204;29;20497;-80
2022/09/09 08:57:37;;;;;;;1.57;1.47;;;33.90;69.30;;;;;;4932078;29;20575;-80
2022/09/09 09:00:04;;;;;;;3.50;1.50;;;33.40;71.00;;;;;;4932829;29;20454;-81
2022/09/09 09:02:51;;;;;;;1.90;1.80;;;32.90;72.30;;;;;;4922591;29;20448;-81
2022/09/09 09:05:25;;;;;;;2.10;1.90;;;33.10;73.80;;;;;;4927311;29;20511;-81
2022/09/09 09:08:12;;;;;;;1.80;1.70;;;34.00;69.70;;;;;;4930836;29;20582;-82
2022/09/09 09:10:50;;;;;;;4.23;2.30;;;35.30;67.20;;;;;;4929974;29;20430;-81
2022/09/09 09:13:37;;;;;;;1.93;1.60;;;36.60;62.90;;;;;;4944451;29;20588;-79
2022/09/09 09:16:33;;;;;;;2.03;1.50;;;35.90;63.20;;;;;;4923247;29;20511;-81
2022/09/09 09:19:00;;;;;;;1.87;1.57;;;33.00;73.30;;;;;;4924074;29;20482;-80
2022/09/09 09:21:43;;;;;;;1.20;1.10;;;31.90;77.40;;;;;;4924450;29;20867;-78
2022/09/09 09:24:28;;;;;;;2.60;1.67;;;30.50;81.40;;;;;;4929673;29;20494;-80
2022/09/09 09:26:55;;;;;;;3.53;1.83;;;29.20;86.60;;;;;;4926299;29;21009;-80
2022/09/09 09:29:25;;;;;;;7.50;1.60;;;28.70;89.50;;;;;;4922699;29;20568;-81
2022/09/09 09:31:56;;;;;;;2.30;2.13;;;29.20;91.10;;;;;;4928635;29;20790;-81
2022/09/09 09:34:25;;;;;;;1.87;1.77;;;29.40;91.90;;;;;;4928138;29;20463;-81
2022/09/09 09:37:03;;;;;;;2.03;1.80;;;29.30;91.50;;;;;;4922662;29;20449;-80
2022/09/09 09:39:38;;;;;;;2.33;1.90;;;28.90;92.20;;;;;;4936265;29;20519;-81
2022/09/09 09:42:25;;;;;;;3.30;1.97;;;28.50;92.50;;;;;;4932124;29;20461;-82
2022/09/09 09:44:52;;;;;;;1.70;1.60;;;27.80;94.90;;;;;;4931225;29;20771;-81
2022/09/09 09:47:21;;;;;;;1.50;1.40;;;27.70;95.90;;;;;;4938247;29;20454;-79
2022/09/09 09:49:53;;;;;;;1.77;1.63;;;27.70;96.00;;;;;;4926625;29;20447;-81
2022/09/09 09:52:32;;;;;;;3.20;2.10;;;27.30;96.40;;;;;;4918916;29;20452;-81
2022/09/09 09:55:02;;;;;;;3.00;1.60;;;27.10;96.40;;;;;;4924132;29;20428;-81
2022/09/09 09:57:34;;;;;;;2.33;1.83;;;27.00;98.20;;;;;;4910046;29;20487;-80
2022/09/09 10:00:07;;;;;;;4.30;2.40;;;26.80;96.70;;;;;;4934528;29;20661;-82
2022/09/09 10:02:40;;;;;;;8.23;2.93;;;26.60;98.00;;;;;;4937196;29;20429;-81
2022/09/09 10:05:20;;;;;;;2.23;1.80;;;26.70;99.20;;;;;;4934039;29;20478;-81
2022/09/09 10:08:13;;;;;;;2.00;1.90;;;26.80;98.00;;;;;;4931102;29;20460;-80
2022/09/09 10:11:07;;;;;;;3.20;1.60;;;26.80;99.20;;;;;;4931469;29;20495;-82
2022/09/09 10:13:40;;;;;;;2.50;1.67;;;27.00;98.70;;;;;;4939229;29;20447;-81
2022/09/09 10:16:20;;;;;;;10.20;3.10;;;26.90;99.90;;;;;;4932642;29;20544;-80
2022/09/09 10:19:12;;;;;;;2.83;1.90;;;26.80;99.90;;;;;;4925467;29;20706;-81
2022/09/09 10:22:07;;;;;;;4.73;1.50;;;26.80;99.90;;;;;;4914038;29;20464;-81
2022/09/09 10:24:44;;;;;;;2.00;1.80;;;26.30;99.90;;;;;;4922918;29;20472;-81
2022/09/09 10:27:22;;;;;;;5.17;2.13;;;26.30;99.90;;;;;;4923314;29;20447;-80
2022/09/09 10:30:13;;;;;;;4.93;1.97;;;26.20;99.90;;;;;;4927972;29;20417;-81
2022/09/09 10:32:56;;;;;;;3.50;1.50;;;26.00;99.90;;;;;;4928406;29;20421;-81
2022/09/09 10:35:42;;;;;;;3.60;1.57;;;25.80;99.90;;;;;;4938742;29;20438;-82
2022/09/09 10:38:20;;;;;;;1.50;1.40;;;25.60;99.90;;;;;;4928093;29;20439;-81
2022/09/09 10:40:55;;;;;;;3.17;1.40;;;25.60;99.90;;;;;;4925266;29;20860;-81
2022/09/09 10:43:30;;;;;;;3.63;2.37;;;25.70;99.90;;;;;;4934176;29;20694;-82
2022/09/09 10:46:06;;;;;;;4.20;2.00;;;25.40;99.90;;;;;;4907868;29;20419;-82
2022/09/09 10:48:57;;;;;;;4.80;2.00;;;25.40;99.90;;;;;;4918953;29;20545;-80
2022/09/09 10:51:49;;;;;;;3.00;2.20;;;25.20;99.90;;;;;;4922565;29;20441;-82
2022/09/09 10:55:00;;;;;;;4.83;1.83;;;25.00;99.90;;;;;;4913707;29;20425;-83
2022/09/09 10:57:42;;;;;;;3.43;2.03;;;25.00;99.90;;;;;;4909932;29;20415;-84
2022/09/09 11:00:18;;;;;;;8.00;2.17;;;25.00;99.90;;;;;;4917251;29;20449;-82
2022/09/09 11:02:50;;;;;;;6.93;1.87;;;25.10;99.90;;;;;;4930239;29;20485;-82
2022/09/09 11:05:26;;;;;;;3.33;1.07;;;25.20;99.90;;;;;;4926580;29;20425;-83
2022/09/09 11:07:59;;;;;;;4.00;1.40;;;25.50;99.90;;;;;;4933902;29;20480;-82
2022/09/09 11:10:42;;;;;;;2.33;1.90;;;25.60;99.90;;;;;;4938070;29;20468;-82
2022/09/09 11:13:43;;;;;;;1.90;1.13;;;25.40;99.90;;;;;;4937157;29;20658;-83
2022/09/09 11:16:20;;;;;;;2.20;1.80;;;25.50;99.90;;;;;;4918658;29;20480;-81
2022/09/09 11:18:55;;;;;;;4.40;1.70;;;25.50;99.90;;;;;;4928667;29;20417;-83
2022/09/09 11:21:36;;;;;;;1.43;1.20;;;25.50;99.90;;;;;;4927360;29;20462;-83
2022/09/09 11:24:14;;;;;;;2.53;1.50;;;25.70;99.90;;;;;;4922505;29;20482;-83
2022/09/09 11:27:36;;;;;;;3.80;2.07;;;25.80;99.90;;;;;;4928419;29;20650;-83
2022/09/09 11:30:17;;;;;;;1.90;1.63;;;25.60;99.90;;;;;;4887848;29;20433;-83
2022/09/09 11:33:34;;;;;;;3.00;2.70;;;25.60;99.90;;;;;;4924025;29;20589;-88
2022/09/09 11:36:13;;;;;;;1.53;1.43;;;25.60;99.90;;;;;;4926838;29;20458;-83
2022/09/09 11:38:47;;;;;;;4.80;2.00;;;25.40;99.90;;;;;;4932414;29;20413;-82
2022/09/09 11:41:16;;;;;;;2.90;1.97;;;25.20;99.90;;;;;;4924525;29;20519;-82
2022/09/09 11:43:53;;;;;;;2.30;1.80;;;25.40;99.90;;;;;;4937246;29;20441;-83
2022/09/09 11:46:33;;;;;;;1.73;1.60;;;25.90;99.90;;;;;;4934729;29;20491;-82
2022/09/09 11:49:03;;;;;;;2.67;1.83;;;26.30;99.90;;;;;;4923326;29;20697;-85
2022/09/09 11:51:32;;;;;;;5.00;1.77;;;26.50;99.90;;;;;;4930960;29;20447;-84
2022/09/09 11:54:23;;;;;;;3.20;1.70;;;26.80;99.90;;;;;;4905285;29;20415;-82
2022/09/09 11:56:50;;;;;;;2.07;1.60;;;26.50;99.90;;;;;;4908832;29;20502;-81
2022/09/09 11:59:26;;;;;;;2.20;1.90;;;26.20;99.90;;;;;;4914504;29;20450;-81
2022/09/09 12:02:14;;;;;;;1.97;1.77;;;26.00;99.90;;;;;;4929241;29;20466;-83
2022/09/09 12:04:50;;;;;;;2.50;2.00;;;26.00;99.90;;;;;;4921683;29;20441;-83
2022/09/09 12:07:32;;;;;;;4.87;2.83;;;26.00;99.90;;;;;;4926302;29;20500;-84
2022/09/09 12:10:07;;;;;;;3.33;1.43;;;25.60;99.90;;;;;;4931530;29;20485;-83
2022/09/09 12:12:37;;;;;;;3.90;2.40;;;25.20;99.90;;;;;;4929593;29;20421;-83
2022/09/09 12:15:27;;;;;;;5.03;1.67;;;25.40;99.90;;;;;;4927637;29;20485;-83
2022/09/09 12:18:01;;;;;;;2.00;1.80;;;25.70;99.90;;;;;;4939780;29;20405;-82
2022/09/09 12:20:37;;;;;;;2.33;1.77;;;26.00;99.90;;;;;;4923044;29;20469;-82
2022/09/09 12:23:32;;;;;;;1.93;1.70;;;25.90;99.90;;;;;;4940408;29;20728;-83
2022/09/09 12:26:09;;;;;;;1.70;1.60;;;26.40;99.90;;;;;;4910304;29;20459;-83
2022/09/09 12:28:50;;;;;;;2.10;1.43;;;27.00;99.90;;;;;;4928060;29;20496;-83
2022/09/09 12:31:30;;;;;;;2.33;1.40;;;27.60;99.90;;;;;;4911165;29;20438;-84
2022/09/09 12:34:10;;;;;;;4.53;1.90;;;27.60;99.90;;;;;;4920311;29;20446;-85
2022/09/09 12:36:40;;;;;;;3.53;1.60;;;27.60;99.90;;;;;;4923105;29;20526;-84
2022/09/09 12:39:46;;;;;;;1.90;1.80;;;26.60;99.90;;;;;;4935055;29;20456;-81
2022/09/09 12:42:20;;;;;;;1.90;1.80;;;26.00;99.90;;;;;;4935465;29;20418;-87
2022/09/09 12:45:02;;;;;;;1.87;1.67;;;25.90;99.90;;;;;;4933038;29;20429;-83
2022/09/09 12:47:40;;;;;;;2.30;1.93;;;25.90;99.90;;;;;;4928563;29;20426;-85
2022/09/09 12:50:19;;;;;;;2.60;1.97;;;26.10;99.90;;;;;;4926418;29;20458;-84
2022/09/09 12:52:47;;;;;;;6.30;1.67;;;26.60;99.90;;;;;;4926882;29;20414;-83
2022/09/09 12:55:37;;;;;;;2.13;1.70;;;26.60;99.90;;;;;;4922979;29;20479;-85
2022/09/09 12:58:06;;;;;;;1.63;1.50;;;26.10;99.90;;;;;;4926791;29;20431;-84
2022/09/09 13:00:34;;;;;;;1.60;1.50;;;26.00;99.90;;;;;;4929491;29;20451;-84
2022/09/09 13:03:15;;;;;;;2.03;1.80;;;25.90;99.90;;;;;;4935828;29;20430;-84
2022/09/09 13:05:43;;;;;;;2.73;1.63;;;26.30;99.90;;;;;;4933637;29;20420;-84
2022/09/09 13:08:13;;;;;;;2.23;1.80;;;26.30;99.90;;;;;;4938229;29;20435;-83
2022/09/09 13:10:53;;;;;;;2.47;1.90;;;26.20;99.90;;;;;;4935578;29;20472;-84
2022/09/09 13:13:42;;;;;;;8.73;2.13;;;26.20;99.90;;;;;;4932678;29;20488;-83
2022/09/09 13:16:21;;;;;;;3.80;1.73;;;26.40;99.90;;;;;;4936590;29;20454;-82